sensor_id;sensor_type;location;lat;lon;timestamp;temperature;humidity
85940;DHT22;76505;46.706;12.340;2024-03-23T00:53:56;10.5;47.8
85940;DHT22;76505;46.706;12.340;2024-03-23T00:54:56;10.5;47.8
85940;DHT22;76505;46.706;12.340;2024-03-23T00:55:56;10.4;48.0
85940;DHT22;76505;46.706;12.340;2024-03-23T00:56:56;10.4;48.2
85940;DHT22;76505;46.706;12.340;2024-03-23T00:57:56;10.5;48.1
85940;DHT22;76505;46.706;12.340;2024-03-23T00:58:56;10.4;48.1
85940;DHT22;76505;46.706;12.340;2024-03-23T00:59:56;10.4;48.3
85940;DHT22;76505;46.706;12.340;2024-03-23T01:00:56;10.4;48.2
85940;DHT22;76505;46.706;12.340;2024-03-23T01:01:56;10.4;48.3
85940;DHT22;76505;46.706;12.340;2024-03-23T01:02:56;10.4;48.2
85940;DHT22;76505;46.706;12.340;2024-03-23T01:03:56;10.4;47.9
85940;DHT22;76505;46.706;12.340;2024-03-23T01:04:56;10.3;47.7
85940;DHT22;76505;46.706;12.340;2024-03-23T01:05:59;10.3;48.1
85940;DHT22;76505;46.706;12.340;2024-03-23T01:06:56;10.2;47.9
85940;DHT22;76505;46.706;12.340;2024-03-23T01:07:56;10.2;48.1
85940;DHT22;76505;46.706;12.340;2024-03-23T01:08:56;10.2;48.1
85940;DHT22;76505;46.706;12.340;2024-03-23T01:09:56;10.2;48.2
85940;DHT22;76505;46.706;12.340;2024-03-23T01:10:56;10.2;48.4
85940;DHT22;76505;46.706;12.340;2024-03-23T01:11:56;10.1;48.1
85940;DHT22;76505;46.706;12.340;2024-03-23T01:12:56;10.2;48.3
85940;DHT22;76505;46.706;12.340;2024-03-23T01:13:57;10.1;48.3
85940;DHT22;76505;46.706;12.340;2024-03-23T01:14:56;10.1;48.3
85940;DHT22;76505;46.706;12.340;2024-03-23T01:15:57;10.0;48.3
85940;DHT22;76505;46.706;12.340;2024-03-23T01:16:56;10.0;48.4
85940;DHT22;76505;46.706;12.340;2024-03-23T01:17:56;10.0;48.5
85940;DHT22;76505;46.706;12.340;2024-03-23T01:18:56;10.0;48.6
85940;DHT22;76505;46.706;12.340;2024-03-23T01:19:56;10.0;48.6
85940;DHT22;76505;46.706;12.340;2024-03-23T01:20:56;10.0;48.8
85940;DHT22;76505;46.706;12.340;2024-03-23T01:21:56;10.0;49.3
85940;DHT22;76505;46.706;12.340;2024-03-23T01:22:56;10.0;48.6
85940;DHT22;76505;46.706;12.340;2024-03-23T01:23:56;9.9;48.8
85940;DHT22;76505;46.706;12.340;2024-03-23T01:24:56;9.9;48.8
85940;DHT22;76505;46.706;12.340;2024-03-23T01:25:56;9.9;48.7
85940;DHT22;76505;46.706;12.340;2024-03-23T01:26:56;9.9;49.1
85940;DHT22;76505;46.706;12.340;2024-03-23T01:27:56;9.9;49.2
85940;DHT22;76505;46.706;12.340;2024-03-23T01:28:56;9.9;48.9
85940;DHT22;76505;46.706;12.340;2024-03-23T01:29:56;9.9;49.1
85940;DHT22;76505;46.706;12.340;2024-03-23T01:30:56;9.9;49.0
85940;DHT22;76505;46.706;12.340;2024-03-23T01:31:56;9.9;49.1
85940;DHT22;76505;46.706;12.340;2024-03-23T01:32:56;9.9;48.5
85940;DHT22;76505;46.706;12.340;2024-03-23T01:33:56;9.9;48.5
85940;DHT22;76505;46.706;12.340;2024-03-23T01:34:56;9.8;48.7
85940;DHT22;76505;46.706;12.340;2024-03-23T01:35:56;9.8;48.8
85940;DHT22;76505;46.706;12.340;2024-03-23T01:36:56;9.9;48.7
85940;DHT22;76505;46.706;12.340;2024-03-23T01:37:56;9.9;48.8
85940;DHT22;76505;46.706;12.340;2024-03-23T01:38:56;9.9;49.0
85940;DHT22;76505;46.706;12.340;2024-03-23T01:39:56;9.9;49.4
85940;DHT22;76505;46.706;12.340;2024-03-23T01:40:57;9.9;49.2
85940;DHT22;76505;46.706;12.340;2024-03-23T01:41:56;9.9;49.3
85940;DHT22;76505;46.706;12.340;2024-03-23T01:42:56;9.9;48.7
85940;DHT22;76505;46.706;12.340;2024-03-23T01:43:56;9.8;48.7
85940;DHT22;76505;46.706;12.340;2024-03-23T01:44:56;9.8;48.8
85940;DHT22;76505;46.706;12.340;2024-03-23T01:45:56;9.9;48.9
85940;DHT22;76505;46.706;12.340;2024-03-23T01:46:56;9.8;49.0
85940;DHT22;76505;46.706;12.340;2024-03-23T01:47:56;9.8;49.1
85940;DHT22;76505;46.706;12.340;2024-03-23T01:48:56;9.9;49.1
85940;DHT22;76505;46.706;12.340;2024-03-23T01:49:56;9.8;48.9
85940;DHT22;76505;46.706;12.340;2024-03-23T01:50:56;9.9;49.3
85940;DHT22;76505;46.706;12.340;2024-03-23T01:51:56;9.9;49.2
85940;DHT22;76505;46.706;12.340;2024-03-23T01:52:56;9.8;49.1
85940;DHT22;76505;46.706;12.340;2024-03-23T01:53:56;9.8;48.9
85940;DHT22;76505;46.706;12.340;2024-03-23T01:54:56;9.8;48.9
85940;DHT22;76505;46.706;12.340;2024-03-23T01:55:57;9.8;49.0
85940;DHT22;76505;46.706;12.340;2024-03-23T01:56:56;9.8;48.9
85940;DHT22;76505;46.706;12.340;2024-03-23T01:57:57;9.9;48.9
85940;DHT22;76505;46.706;12.340;2024-03-23T01:58:56;9.8;48.7
85940;DHT22;76505;46.706;12.340;2024-03-23T01:59:56;9.9;48.9
85940;DHT22;76505;46.706;12.340;2024-03-23T02:00:57;9.8;49.1
85940;DHT22;76505;46.706;12.340;2024-03-23T02:01:56;9.8;49.1
85940;DHT22;76505;46.706;12.340;2024-03-23T02:02:56;9.8;48.8
85940;DHT22;76505;46.706;12.340;2024-03-23T02:03:56;9.8;48.7
85940;DHT22;76505;46.706;12.340;2024-03-23T02:04:56;9.8;48.5
85940;DHT22;76505;46.706;12.340;2024-03-23T02:05:56;9.8;48.8
85940;DHT22;76505;46.706;12.340;2024-03-23T02:06:56;9.8;48.8
85940;DHT22;76505;46.706;12.340;2024-03-23T02:07:56;9.7;48.8
85940;DHT22;76505;46.706;12.340;2024-03-23T02:08:56;9.7;48.7
85940;DHT22;76505;46.706;12.340;2024-03-23T02:09:56;9.7;48.7
85940;DHT22;76505;46.706;12.340;2024-03-23T02:10:56;9.7;48.4
85940;DHT22;76505;46.706;12.340;2024-03-23T02:11:56;9.7;48.6
85940;DHT22;76505;46.706;12.340;2024-03-23T02:12:56;9.7;48.4
85940;DHT22;76505;46.706;12.340;2024-03-23T02:13:56;9.7;48.8
85940;DHT22;76505;46.706;12.340;2024-03-23T02:14:56;9.7;48.6
85940;DHT22;76505;46.706;12.340;2024-03-23T02:15:56;9.7;48.5
85940;DHT22;76505;46.706;12.340;2024-03-23T02:16:56;9.7;48.7
85940;DHT22;76505;46.706;12.340;2024-03-23T02:17:56;9.6;48.6
85940;DHT22;76505;46.706;12.340;2024-03-23T02:18:56;9.7;48.5
85940;DHT22;76505;46.706;12.340;2024-03-23T02:19:56;9.6;48.7
85940;DHT22;76505;46.706;12.340;2024-03-23T02:20:56;9.6;48.8
85940;DHT22;76505;46.706;12.340;2024-03-23T02:21:56;9.7;48.9
85940;DHT22;76505;46.706;12.340;2024-03-23T02:22:56;9.6;49.0
85940;DHT22;76505;46.706;12.340;2024-03-23T02:23:56;9.6;48.6
85940;DHT22;76505;46.706;12.340;2024-03-23T02:24:56;9.6;48.8
85940;DHT22;76505;46.706;12.340;2024-03-23T02:25:56;9.6;48.7
85940;DHT22;76505;46.706;12.340;2024-03-23T02:26:56;9.6;48.9
85940;DHT22;76505;46.706;12.340;2024-03-23T02:27:56;9.5;49.1
85940;DHT22;76505;46.706;12.340;2024-03-23T02:28:56;9.5;49.0
85940;DHT22;76505;46.706;12.340;2024-03-23T02:29:56;9.5;49.1
85940;DHT22;76505;46.706;12.340;2024-03-23T02:30:56;9.5;48.9
85940;DHT22;76505;46.706;12.340;2024-03-23T02:31:56;9.4;49.1
85940;DHT22;76505;46.706;12.340;2024-03-23T02:32:56;9.4;49.1
85940;DHT22;76505;46.706;12.340;2024-03-23T02:33:56;9.4;48.9
85940;DHT22;76505;46.706;12.340;2024-03-23T02:34:56;9.4;49.0
85940;DHT22;76505;46.706;12.340;2024-03-23T02:35:56;9.4;49.0
85940;DHT22;76505;46.706;12.340;2024-03-23T02:36:57;9.3;49.6
85940;DHT22;76505;46.706;12.340;2024-03-23T02:37:57;9.3;49.6
85940;DHT22;76505;46.706;12.340;2024-03-23T02:38:56;9.3;49.8
85940;DHT22;76505;46.706;12.340;2024-03-23T02:39:56;9.3;49.7
85940;DHT22;76505;46.706;12.340;2024-03-23T02:41:02;9.3;49.5
85940;DHT22;76505;46.706;12.340;2024-03-23T02:41:56;9.3;49.7
85940;DHT22;76505;46.706;12.340;2024-03-23T02:42:56;9.3;49.7
85940;DHT22;76505;46.706;12.340;2024-03-23T02:43:56;9.2;49.8
85940;DHT22;76505;46.706;12.340;2024-03-23T02:44:56;9.2;49.6
85940;DHT22;76505;46.706;12.340;2024-03-23T02:45:56;9.2;49.6
85940;DHT22;76505;46.706;12.340;2024-03-23T02:46:56;9.2;49.8
85940;DHT22;76505;46.706;12.340;2024-03-23T02:47:56;9.2;50.0
85940;DHT22;76505;46.706;12.340;2024-03-23T02:48:57;9.2;49.9
85940;DHT22;76505;46.706;12.340;2024-03-23T02:49:56;9.1;49.7
85940;DHT22;76505;46.706;12.340;2024-03-23T02:50:56;9.1;49.6
85940;DHT22;76505;46.706;12.340;2024-03-23T02:51:56;9.1;49.7
85940;DHT22;76505;46.706;12.340;2024-03-23T02:52:56;9.1;49.5
85940;DHT22;76505;46.706;12.340;2024-03-23T02:53:56;9.1;50.0
85940;DHT22;76505;46.706;12.340;2024-03-23T02:54:56;9.1;50.0
85940;DHT22;76505;46.706;12.340;2024-03-23T02:55:57;9.2;50.1
85940;DHT22;76505;46.706;12.340;2024-03-23T02:56:56;9.1;50.0
85940;DHT22;76505;46.706;12.340;2024-03-23T02:57:56;9.2;49.7
85940;DHT22;76505;46.706;12.340;2024-03-23T02:58:56;9.1;49.6
85940;DHT22;76505;46.706;12.340;2024-03-23T02:59:56;9.1;49.8
85940;DHT22;76505;46.706;12.340;2024-03-23T03:00:56;9.1;49.9
85940;DHT22;76505;46.706;12.340;2024-03-23T03:01:56;9.1;50.0
85940;DHT22;76505;46.706;12.340;2024-03-23T03:02:56;9.1;49.9
85940;DHT22;76505;46.706;12.340;2024-03-23T03:03:56;9.1;50.0
85940;DHT22;76505;46.706;12.340;2024-03-23T03:04:56;9.1;50.1
85940;DHT22;76505;46.706;12.340;2024-03-23T03:05:56;9.1;50.2
85940;DHT22;76505;46.706;12.340;2024-03-23T03:06:56;9.1;50.3
85940;DHT22;76505;46.706;12.340;2024-03-23T03:07:56;9.0;50.4
85940;DHT22;76505;46.706;12.340;2024-03-23T03:08:56;9.0;50.5
85940;DHT22;76505;46.706;12.340;2024-03-23T03:09:56;9.0;50.4
85940;DHT22;76505;46.706;12.340;2024-03-23T03:10:56;9.0;50.5
85940;DHT22;76505;46.706;12.340;2024-03-23T03:11:56;9.0;50.7
85940;DHT22;76505;46.706;12.340;2024-03-23T03:12:56;9.0;50.5
85940;DHT22;76505;46.706;12.340;2024-03-23T03:13:56;9.0;50.4
85940;DHT22;76505;46.706;12.340;2024-03-23T03:14:56;9.0;50.2
85940;DHT22;76505;46.706;12.340;2024-03-23T03:15:56;8.9;50.3
85940;DHT22;76505;46.706;12.340;2024-03-23T03:16:56;8.9;50.8
85940;DHT22;76505;46.706;12.340;2024-03-23T03:17:56;8.9;50.8
85940;DHT22;76505;46.706;12.340;2024-03-23T03:18:56;8.9;50.8
85940;DHT22;76505;46.706;12.340;2024-03-23T03:19:57;8.9;50.6
85940;DHT22;76505;46.706;12.340;2024-03-23T03:20:56;8.9;50.3
85940;DHT22;76505;46.706;12.340;2024-03-23T03:21:56;8.9;50.0
85940;DHT22;76505;46.706;12.340;2024-03-23T03:22:56;9.0;50.1
85940;DHT22;76505;46.706;12.340;2024-03-23T03:23:57;8.9;50.1
85940;DHT22;76505;46.706;12.340;2024-03-23T03:24:56;8.8;50.0
85940;DHT22;76505;46.706;12.340;2024-03-23T03:25:56;8.9;50.1
85940;DHT22;76505;46.706;12.340;2024-03-23T03:26:56;8.8;50.1
85940;DHT22;76505;46.706;12.340;2024-03-23T03:27:56;8.9;50.1
85940;DHT22;76505;46.706;12.340;2024-03-23T03:28:56;8.9;50.1
85940;DHT22;76505;46.706;12.340;2024-03-23T03:29:56;8.9;50.2
85940;DHT22;76505;46.706;12.340;2024-03-23T03:30:56;8.8;50.2
85940;DHT22;76505;46.706;12.340;2024-03-23T03:31:56;8.8;50.3
85940;DHT22;76505;46.706;12.340;2024-03-23T03:32:56;8.8;50.0
85940;DHT22;76505;46.706;12.340;2024-03-23T03:33:56;8.9;50.0
85940;DHT22;76505;46.706;12.340;2024-03-23T03:34:56;8.9;50.0
85940;DHT22;76505;46.706;12.340;2024-03-23T03:35:56;8.8;50.0
85940;DHT22;76505;46.706;12.340;2024-03-23T03:36:56;8.8;50.0
85940;DHT22;76505;46.706;12.340;2024-03-23T03:37:56;8.8;50.2
85940;DHT22;76505;46.706;12.340;2024-03-23T03:38:56;8.7;50.3
85940;DHT22;76505;46.706;12.340;2024-03-23T03:39:56;8.7;50.1
85940;DHT22;76505;46.706;12.340;2024-03-23T03:40:56;8.7;50.2
85940;DHT22;76505;46.706;12.340;2024-03-23T03:41:56;8.8;50.4
85940;DHT22;76505;46.706;12.340;2024-03-23T03:42:56;8.7;50.6
85940;DHT22;76505;46.706;12.340;2024-03-23T03:43:56;8.7;50.5
85940;DHT22;76505;46.706;12.340;2024-03-23T03:44:56;8.7;50.5
85940;DHT22;76505;46.706;12.340;2024-03-23T03:45:58;8.7;50.7
85940;DHT22;76505;46.706;12.340;2024-03-23T03:46:56;8.7;50.6
85940;DHT22;76505;46.706;12.340;2024-03-23T03:47:56;8.7;50.9
85940;DHT22;76505;46.706;12.340;2024-03-23T03:48:56;8.7;51.1
85940;DHT22;76505;46.706;12.340;2024-03-23T03:49:56;8.7;51.1
85940;DHT22;76505;46.706;12.340;2024-03-23T03:50:56;8.7;51.2
85940;DHT22;76505;46.706;12.340;2024-03-23T03:51:56;8.6;50.7
85940;DHT22;76505;46.706;12.340;2024-03-23T03:52:56;8.6;50.5
85940;DHT22;76505;46.706;12.340;2024-03-23T03:53:56;8.6;50.5
85940;DHT22;76505;46.706;12.340;2024-03-23T03:55:02;8.5;50.7
85940;DHT22;76505;46.706;12.340;2024-03-23T03:55:56;8.5;50.7
85940;DHT22;76505;46.706;12.340;2024-03-23T03:56:56;8.4;50.7
85940;DHT22;76505;46.706;12.340;2024-03-23T03:57:56;8.4;51.0
85940;DHT22;76505;46.706;12.340;2024-03-23T03:58:56;8.4;51.2
85940;DHT22;76505;46.706;12.340;2024-03-23T03:59:56;8.4;51.2
85940;DHT22;76505;46.706;12.340;2024-03-23T04:00:56;8.5;51.3
85940;DHT22;76505;46.706;12.340;2024-03-23T04:01:56;8.5;51.0
85940;DHT22;76505;46.706;12.340;2024-03-23T04:02:56;8.5;51.0
85940;DHT22;76505;46.706;12.340;2024-03-23T04:03:56;8.5;50.9
85940;DHT22;76505;46.706;12.340;2024-03-23T04:04:56;8.4;50.9
85940;DHT22;76505;46.706;12.340;2024-03-23T04:05:56;8.4;50.8
85940;DHT22;76505;46.706;12.340;2024-03-23T04:06:59;8.4;51.0
85940;DHT22;76505;46.706;12.340;2024-03-23T04:07:56;8.3;50.9
85940;DHT22;76505;46.706;12.340;2024-03-23T04:08:56;8.4;50.9
85940;DHT22;76505;46.706;12.340;2024-03-23T04:09:56;8.4;50.7
85940;DHT22;76505;46.706;12.340;2024-03-23T04:10:56;8.4;50.7
85940;DHT22;76505;46.706;12.340;2024-03-23T04:11:56;8.3;50.7
85940;DHT22;76505;46.706;12.340;2024-03-23T04:12:56;8.3;50.9
85940;DHT22;76505;46.706;12.340;2024-03-23T04:13:56;8.4;50.8
85940;DHT22;76505;46.706;12.340;2024-03-23T04:14:56;8.3;50.9
85940;DHT22;76505;46.706;12.340;2024-03-23T04:15:56;8.4;50.9
85940;DHT22;76505;46.706;12.340;2024-03-23T04:16:56;8.3;51.1
85940;DHT22;76505;46.706;12.340;2024-03-23T04:17:56;8.4;51.2
85940;DHT22;76505;46.706;12.340;2024-03-23T04:18:56;8.3;50.9
85940;DHT22;76505;46.706;12.340;2024-03-23T04:19:56;8.3;50.9
85940;DHT22;76505;46.706;12.340;2024-03-23T04:20:56;8.3;50.8
85940;DHT22;76505;46.706;12.340;2024-03-23T04:21:57;8.3;50.9
85940;DHT22;76505;46.706;12.340;2024-03-23T04:22:56;8.3;51.1
85940;DHT22;76505;46.706;12.340;2024-03-23T04:23:56;8.3;51.1
85940;DHT22;76505;46.706;12.340;2024-03-23T04:25:01;8.3;51.0
85940;DHT22;76505;46.706;12.340;2024-03-23T04:25:57;8.3;51.1
85940;DHT22;76505;46.706;12.340;2024-03-23T04:26:56;8.2;51.0
85940;DHT22;76505;46.706;12.340;2024-03-23T04:27:56;8.2;51.2
85940;DHT22;76505;46.706;12.340;2024-03-23T04:28:56;8.2;51.0
85940;DHT22;76505;46.706;12.340;2024-03-23T04:29:56;8.2;51.0
85940;DHT22;76505;46.706;12.340;2024-03-23T04:30:56;8.1;51.0
85940;DHT22;76505;46.706;12.340;2024-03-23T04:31:57;8.2;51.2
85940;DHT22;76505;46.706;12.340;2024-03-23T04:32:57;8.2;50.9
85940;DHT22;76505;46.706;12.340;2024-03-23T04:33:56;8.2;51.0
85940;DHT22;76505;46.706;12.340;2024-03-23T04:34:57;8.2;51.1
85940;DHT22;76505;46.706;12.340;2024-03-23T04:35:56;8.2;51.1
85940;DHT22;76505;46.706;12.340;2024-03-23T04:37:01;8.2;51.0
85940;DHT22;76505;46.706;12.340;2024-03-23T04:37:56;8.1;51.2
85940;DHT22;76505;46.706;12.340;2024-03-23T04:38:57;8.1;51.1
85940;DHT22;76505;46.706;12.340;2024-03-23T04:39:56;8.2;51.1
85940;DHT22;76505;46.706;12.340;2024-03-23T04:40:56;8.1;51.3
85940;DHT22;76505;46.706;12.340;2024-03-23T04:41:56;8.1;51.5
85940;DHT22;76505;46.706;12.340;2024-03-23T04:42:56;8.1;51.6
85940;DHT22;76505;46.706;12.340;2024-03-23T04:43:56;8.1;51.7
85940;DHT22;76505;46.706;12.340;2024-03-23T04:44:56;8.0;51.7
85940;DHT22;76505;46.706;12.340;2024-03-23T04:45:56;8.1;51.5
85940;DHT22;76505;46.706;12.340;2024-03-23T04:46:56;8.0;51.6
85940;DHT22;76505;46.706;12.340;2024-03-23T04:47:56;8.0;51.3
85940;DHT22;76505;46.706;12.340;2024-03-23T04:48:57;8.0;51.5
85940;DHT22;76505;46.706;12.340;2024-03-23T04:49:56;7.9;51.4
85940;DHT22;76505;46.706;12.340;2024-03-23T04:50:58;8.0;51.3
85940;DHT22;76505;46.706;12.340;2024-03-23T04:51:56;7.9;51.3
85940;DHT22;76505;46.706;12.340;2024-03-23T04:52:56;7.9;51.3
85940;DHT22;76505;46.706;12.340;2024-03-23T04:53:56;7.9;51.5
85940;DHT22;76505;46.706;12.340;2024-03-23T04:54:56;8.0;51.6
85940;DHT22;76505;46.706;12.340;2024-03-23T04:55:56;7.9;51.7
85940;DHT22;76505;46.706;12.340;2024-03-23T04:56:56;7.9;51.6
85940;DHT22;76505;46.706;12.340;2024-03-23T04:57:58;8.0;51.4
85940;DHT22;76505;46.706;12.340;2024-03-23T04:59:01;7.9;51.5
85940;DHT22;76505;46.706;12.340;2024-03-23T04:59:56;7.9;51.7
85940;DHT22;76505;46.706;12.340;2024-03-23T05:00:56;7.9;51.8
85940;DHT22;76505;46.706;12.340;2024-03-23T05:01:56;8.0;51.8
85940;DHT22;76505;46.706;12.340;2024-03-23T05:02:56;7.9;51.7
85940;DHT22;76505;46.706;12.340;2024-03-23T05:03:56;7.8;51.7
85940;DHT22;76505;46.706;12.340;2024-03-23T05:04:56;7.8;51.7
85940;DHT22;76505;46.706;12.340;2024-03-23T05:05:56;7.8;51.5
85940;DHT22;76505;46.706;12.340;2024-03-23T05:06:56;7.8;51.7
85940;DHT22;76505;46.706;12.340;2024-03-23T05:07:56;7.8;51.8
85940;DHT22;76505;46.706;12.340;2024-03-23T05:08:56;7.8;51.6
85940;DHT22;76505;46.706;12.340;2024-03-23T05:09:56;7.9;51.6
85940;DHT22;76505;46.706;12.340;2024-03-23T05:10:56;7.9;51.8
85940;DHT22;76505;46.706;12.340;2024-03-23T05:11:56;7.8;51.8
85940;DHT22;76505;46.706;12.340;2024-03-23T05:12:57;7.8;51.6
85940;DHT22;76505;46.706;12.340;2024-03-23T05:13:56;7.8;51.5
85940;DHT22;76505;46.706;12.340;2024-03-23T05:14:56;7.9;51.4
85940;DHT22;76505;46.706;12.340;2024-03-23T05:15:56;7.8;51.6
85940;DHT22;76505;46.706;12.340;2024-03-23T05:16:56;7.8;51.5
85940;DHT22;76505;46.706;12.340;2024-03-23T05:17:56;7.9;51.9
85940;DHT22;76505;46.706;12.340;2024-03-23T05:18:56;7.8;52.0
85940;DHT22;76505;46.706;12.340;2024-03-23T05:19:56;7.8;51.7
85940;DHT22;76505;46.706;12.340;2024-03-23T05:20:56;7.7;51.8
85940;DHT22;76505;46.706;12.340;2024-03-23T05:21:56;7.7;51.8
85940;DHT22;76505;46.706;12.340;2024-03-23T05:22:56;7.7;51.7
85940;DHT22;76505;46.706;12.340;2024-03-23T05:23:56;7.6;51.9
85940;DHT22;76505;46.706;12.340;2024-03-23T05:24:58;7.6;51.8
85940;DHT22;76505;46.706;12.340;2024-03-23T05:25:56;7.7;51.8
85940;DHT22;76505;46.706;12.340;2024-03-23T05:26:59;7.6;52.1
85940;DHT22;76505;46.706;12.340;2024-03-23T05:27:56;7.7;52.0
85940;DHT22;76505;46.706;12.340;2024-03-23T05:28:56;7.6;51.9
85940;DHT22;76505;46.706;12.340;2024-03-23T05:29:56;7.6;52.2
85940;DHT22;76505;46.706;12.340;2024-03-23T05:30:56;7.7;52.0
85940;DHT22;76505;46.706;12.340;2024-03-23T05:31:57;7.6;52.0
85940;DHT22;76505;46.706;12.340;2024-03-23T05:32:56;7.7;51.8
85940;DHT22;76505;46.706;12.340;2024-03-23T05:33:56;7.6;51.6
85940;DHT22;76505;46.706;12.340;2024-03-23T05:34:57;7.6;51.8
85940;DHT22;76505;46.706;12.340;2024-03-23T05:35:57;7.6;51.7
85940;DHT22;76505;46.706;12.340;2024-03-23T05:36:56;7.6;52.0
85940;DHT22;76505;46.706;12.340;2024-03-23T05:37:56;7.7;52.1
85940;DHT22;76505;46.706;12.340;2024-03-23T05:38:56;7.7;52.0
85940;DHT22;76505;46.706;12.340;2024-03-23T05:39:56;7.6;51.8
85940;DHT22;76505;46.706;12.340;2024-03-23T05:40:57;7.6;51.9
85940;DHT22;76505;46.706;12.340;2024-03-23T05:41:56;7.7;52.2
85940;DHT22;76505;46.706;12.340;2024-03-23T05:42:56;7.6;52.1
85940;DHT22;76505;46.706;12.340;2024-03-23T05:43:56;7.7;52.2
85940;DHT22;76505;46.706;12.340;2024-03-23T05:44:56;7.7;52.2
85940;DHT22;76505;46.706;12.340;2024-03-23T05:45:56;7.6;52.3
85940;DHT22;76505;46.706;12.340;2024-03-23T05:46:56;7.6;52.2
85940;DHT22;76505;46.706;12.340;2024-03-23T05:47:57;7.6;52.1
85940;DHT22;76505;46.706;12.340;2024-03-23T05:49:01;7.6;52.1
85940;DHT22;76505;46.706;12.340;2024-03-23T05:49:56;7.5;52.2
85940;DHT22;76505;46.706;12.340;2024-03-23T05:50:56;7.6;52.1
85940;DHT22;76505;46.706;12.340;2024-03-23T05:51:56;7.6;52.3
85940;DHT22;76505;46.706;12.340;2024-03-23T05:52:56;7.6;52.2
85940;DHT22;76505;46.706;12.340;2024-03-23T05:53:56;7.6;52.5
85940;DHT22;76505;46.706;12.340;2024-03-23T05:54:56;7.6;52.2
85940;DHT22;76505;46.706;12.340;2024-03-23T05:56:01;7.6;52.2
85940;DHT22;76505;46.706;12.340;2024-03-23T05:56:56;7.6;52.1
85940;DHT22;76505;46.706;12.340;2024-03-23T05:57:56;7.6;51.9
85940;DHT22;76505;46.706;12.340;2024-03-23T05:58:56;7.6;52.1
85940;DHT22;76505;46.706;12.340;2024-03-23T05:59:56;7.6;52.3
85940;DHT22;76505;46.706;12.340;2024-03-23T06:00:58;7.6;51.9
85940;DHT22;76505;46.706;12.340;2024-03-23T06:01:57;7.6;52.0
85940;DHT22;76505;46.706;12.340;2024-03-23T06:02:56;7.6;51.8
85940;DHT22;76505;46.706;12.340;2024-03-23T06:03:56;7.6;51.7
85940;DHT22;76505;46.706;12.340;2024-03-23T06:04:56;7.5;51.7
85940;DHT22;76505;46.706;12.340;2024-03-23T06:05:56;7.5;52.1
85940;DHT22;76505;46.706;12.340;2024-03-23T06:06:56;7.6;52.1
85940;DHT22;76505;46.706;12.340;2024-03-23T06:07:56;7.6;52.1
85940;DHT22;76505;46.706;12.340;2024-03-23T06:08:56;7.5;52.4
85940;DHT22;76505;46.706;12.340;2024-03-23T06:09:56;7.6;52.5
85940;DHT22;76505;46.706;12.340;2024-03-23T06:10:56;7.6;52.6
85940;DHT22;76505;46.706;12.340;2024-03-23T06:11:56;7.7;52.5
85940;DHT22;76505;46.706;12.340;2024-03-23T06:12:56;7.6;52.6
85940;DHT22;76505;46.706;12.340;2024-03-23T06:13:56;7.6;52.6
85940;DHT22;76505;46.706;12.340;2024-03-23T06:14:56;7.6;52.6
85940;DHT22;76505;46.706;12.340;2024-03-23T06:15:56;7.6;52.1
85940;DHT22;76505;46.706;12.340;2024-03-23T06:16:56;7.6;52.4
85940;DHT22;76505;46.706;12.340;2024-03-23T06:17:56;7.7;52.5
85940;DHT22;76505;46.706;12.340;2024-03-23T06:18:56;7.7;52.3
85940;DHT22;76505;46.706;12.340;2024-03-23T06:19:56;7.7;52.4
85940;DHT22;76505;46.706;12.340;2024-03-23T06:20:56;7.7;52.3
85940;DHT22;76505;46.706;12.340;2024-03-23T06:21:56;7.7;52.3
85940;DHT22;76505;46.706;12.340;2024-03-23T06:22:56;7.6;52.8
85940;DHT22;76505;46.706;12.340;2024-03-23T06:23:56;7.6;52.7
85940;DHT22;76505;46.706;12.340;2024-03-23T06:24:56;7.6;52.6
85940;DHT22;76505;46.706;12.340;2024-03-23T06:25:56;7.7;52.6
85940;DHT22;76505;46.706;12.340;2024-03-23T06:26:56;7.6;52.6
85940;DHT22;76505;46.706;12.340;2024-03-23T06:27:57;7.7;52.7
85940;DHT22;76505;46.706;12.340;2024-03-23T06:28:56;7.7;52.8
85940;DHT22;76505;46.706;12.340;2024-03-23T06:29:56;7.7;52.8
85940;DHT22;76505;46.706;12.340;2024-03-23T06:30:56;7.7;52.9
85940;DHT22;76505;46.706;12.340;2024-03-23T06:31:56;7.7;52.9
85940;DHT22;76505;46.706;12.340;2024-03-23T06:32:56;7.8;53.0
85940;DHT22;76505;46.706;12.340;2024-03-23T06:33:56;7.8;53.0
85940;DHT22;76505;46.706;12.340;2024-03-23T06:34:56;7.9;53.0
85940;DHT22;76505;46.706;12.340;2024-03-23T06:35:56;7.8;53.1
85940;DHT22;76505;46.706;12.340;2024-03-23T06:36:56;7.9;53.2
85940;DHT22;76505;46.706;12.340;2024-03-23T06:37:56;7.9;53.2
85940;DHT22;76505;46.706;12.340;2024-03-23T06:38:56;7.9;53.7
85940;DHT22;76505;46.706;12.340;2024-03-23T06:40:02;8.0;53.8
85940;DHT22;76505;46.706;12.340;2024-03-23T06:40:56;8.0;53.8
85940;DHT22;76505;46.706;12.340;2024-03-23T06:41:57;8.0;53.8
85940;DHT22;76505;46.706;12.340;2024-03-23T06:42:56;8.1;53.6
85940;DHT22;76505;46.706;12.340;2024-03-23T06:43:56;8.1;53.9
85940;DHT22;76505;46.706;12.340;2024-03-23T06:44:56;8.0;53.8
85940;DHT22;76505;46.706;12.340;2024-03-23T06:45:57;8.0;53.8
85940;DHT22;76505;46.706;12.340;2024-03-23T06:46:57;7.9;54.0
85940;DHT22;76505;46.706;12.340;2024-03-23T06:47:58;7.9;54.2
85940;DHT22;76505;46.706;12.340;2024-03-23T06:48:56;8.0;54.1
85940;DHT22;76505;46.706;12.340;2024-03-23T06:49:56;8.1;53.9
85940;DHT22;76505;46.706;12.340;2024-03-23T06:50:57;8.2;54.0
85940;DHT22;76505;46.706;12.340;2024-03-23T06:51:56;8.3;54.2
85940;DHT22;76505;46.706;12.340;2024-03-23T06:52:56;8.2;54.2
85940;DHT22;76505;46.706;12.340;2024-03-23T06:53:56;8.3;53.9
85940;DHT22;76505;46.706;12.340;2024-03-23T06:54:57;8.4;54.7
85940;DHT22;76505;46.706;12.340;2024-03-23T06:55:56;8.5;54.4
85940;DHT22;76505;46.706;12.340;2024-03-23T06:56:56;8.4;54.2
85940;DHT22;76505;46.706;12.340;2024-03-23T06:57:56;8.6;53.6
85940;DHT22;76505;46.706;12.340;2024-03-23T06:58:56;8.6;53.9
85940;DHT22;76505;46.706;12.340;2024-03-23T06:59:56;8.6;53.5
85940;DHT22;76505;46.706;12.340;2024-03-23T07:00:56;8.7;53.5
85940;DHT22;76505;46.706;12.340;2024-03-23T07:01:56;8.7;54.2
85940;DHT22;76505;46.706;12.340;2024-03-23T07:02:56;8.7;53.5
85940;DHT22;76505;46.706;12.340;2024-03-23T07:03:56;8.8;53.8
85940;DHT22;76505;46.706;12.340;2024-03-23T07:04:56;8.8;54.0
85940;DHT22;76505;46.706;12.340;2024-03-23T07:05:58;8.8;54.2
85940;DHT22;76505;46.706;12.340;2024-03-23T07:06:56;8.9;53.8
85940;DHT22;76505;46.706;12.340;2024-03-23T07:07:56;8.9;54.1
85940;DHT22;76505;46.706;12.340;2024-03-23T07:08:56;9.0;53.7
85940;DHT22;76505;46.706;12.340;2024-03-23T07:09:56;9.0;53.8
85940;DHT22;76505;46.706;12.340;2024-03-23T07:10:56;9.0;53.8
85940;DHT22;76505;46.706;12.340;2024-03-23T07:11:56;9.0;53.8
85940;DHT22;76505;46.706;12.340;2024-03-23T07:12:56;9.1;53.5
85940;DHT22;76505;46.706;12.340;2024-03-23T07:13:56;9.1;53.6
85940;DHT22;76505;46.706;12.340;2024-03-23T07:14:56;9.1;53.7
85940;DHT22;76505;46.706;12.340;2024-03-23T07:15:57;9.2;54.0
85940;DHT22;76505;46.706;12.340;2024-03-23T07:16:56;9.3;54.0
85940;DHT22;76505;46.706;12.340;2024-03-23T07:17:56;9.3;53.6
85940;DHT22;76505;46.706;12.340;2024-03-23T07:18:56;9.3;53.4
85940;DHT22;76505;46.706;12.340;2024-03-23T07:19:56;9.4;52.8
85940;DHT22;76505;46.706;12.340;2024-03-23T07:20:57;9.4;53.1
85940;DHT22;76505;46.706;12.340;2024-03-23T07:21:56;9.4;53.0
85940;DHT22;76505;46.706;12.340;2024-03-23T07:22:56;9.4;52.9
85940;DHT22;76505;46.706;12.340;2024-03-23T07:23:56;9.5;52.7